Time;durP1;ratioP1;P1;durP2;ratioP2;P2;SDS_P1;SDS_P2;PMS_P1;PMS_P2;Temp;Humidity;BMP_temperature;BMP_pressure;BME280_temperature;BME280_humidity;BME280_pressure;Samples;Min_cycle;Max_cycle;Signal;HPM_P1;HPM_P2
2022/11/14 00:00:30;;;;;;;19.88;14.98;;;;;;;3.72;100.00;101378.00;5252079;28;20025;-66
2022/11/14 00:03:04;;;;;;;19.90;14.55;;;;;;;3.73;100.00;101377.06;5254215;28;20394;-66
2022/11/14 00:05:41;;;;;;;18.63;15.10;;;;;;;3.69;100.00;101367.56;5251135;28;20470;-65
2022/11/14 00:08:21;;;;;;;22.13;15.55;;;;;;;3.77;100.00;101372.53;5255669;28;20107;-66
2022/11/14 00:10:53;;;;;;;20.05;14.65;;;;;;;3.75;100.00;101366.47;5255001;28;20033;-66
2022/11/14 00:13:24;;;;;;;18.60;15.20;;;;;;;3.68;100.00;101367.63;5254821;28;20035;-65
2022/11/14 00:15:55;;;;;;;20.30;15.43;;;;;;;3.77;100.00;101363.78;5250656;28;20041;-65
2022/11/14 00:18:26;;;;;;;18.77;14.93;;;;;;;3.77;100.00;101364.63;5247976;28;20037;-66
2022/11/14 00:20:58;;;;;;;21.20;14.90;;;;;;;3.80;100.00;101359.22;5252979;28;20120;-65
2022/11/14 00:23:29;;;;;;;18.73;14.45;;;;;;;3.82;100.00;101361.81;5254089;28;20036;-65
2022/11/14 00:26:00;;;;;;;19.15;14.63;;;;;;;3.76;100.00;101362.91;5252334;28;20482;-65
2022/11/14 00:28:32;;;;;;;18.77;14.30;;;;;;;3.81;100.00;101363.56;5252083;28;20028;-65
2022/11/14 00:31:03;;;;;;;17.80;13.55;;;;;;;3.75;100.00;101365.63;5252365;28;20040;-66
2022/11/14 00:33:34;;;;;;;16.92;13.65;;;;;;;3.83;100.00;101360.88;5251094;28;20093;-65
2022/11/14 00:36:06;;;;;;;18.13;14.15;;;;;;;3.92;100.00;101355.22;5250050;28;20037;-65
2022/11/14 00:38:37;;;;;;;16.55;13.77;;;;;;;3.78;100.00;101349.63;5244944;28;20032;-65
2022/11/14 00:41:08;;;;;;;17.05;14.40;;;;;;;3.73;100.00;101342.75;5242758;28;20543;-65
2022/11/14 00:43:39;;;;;;;17.10;13.10;;;;;;;3.73;100.00;101347.19;5247455;28;20459;-65
2022/11/14 00:46:11;;;;;;;16.70;13.80;;;;;;;3.60;100.00;101346.81;5246961;28;20564;-65
2022/11/14 00:48:43;;;;;;;15.80;12.80;;;;;;;3.67;100.00;101350.94;5246122;28;20453;-65
2022/11/14 00:51:14;;;;;;;17.60;13.75;;;;;;;3.62;100.00;101355.53;5247102;28;20033;-65
2022/11/14 00:53:45;;;;;;;19.95;12.93;;;;;;;3.66;100.00;101341.31;5248034;28;20398;-65
2022/11/14 00:56:16;;;;;;;17.95;14.05;;;;;;;3.71;100.00;101331.41;5246031;28;21319;-65
2022/11/14 00:58:48;;;;;;;17.17;13.13;;;;;;;3.64;100.00;101334.34;5246776;28;20059;-65
2022/11/14 01:01:19;;;;;;;18.90;13.88;;;;;;;3.62;100.00;101325.66;5245749;28;20134;-65
2022/11/14 01:03:51;;;;;;;17.52;13.27;;;;;;;3.58;100.00;101321.41;5245929;28;20048;-65
2022/11/14 01:06:22;;;;;;;17.63;13.50;;;;;;;3.67;100.00;101319.25;5244441;28;21385;-65
2022/11/14 01:08:54;;;;;;;17.13;12.80;;;;;;;3.59;100.00;101318.72;5246194;28;20470;-65
2022/11/14 01:11:25;;;;;;;17.85;13.57;;;;;;;3.56;100.00;101304.78;5245745;28;20028;-65
2022/11/14 01:13:56;;;;;;;17.98;13.05;;;;;;;3.59;100.00;101308.16;5246420;28;20508;-65
2022/11/14 01:16:27;;;;;;;16.65;13.10;;;;;;;3.53;100.00;101311.06;5243037;28;20051;-65
2022/11/14 01:18:59;;;;;;;17.13;12.65;;;;;;;3.60;100.00;101303.75;5248702;28;20116;-65
2022/11/14 01:21:30;;;;;;;16.92;12.27;;;;;;;3.58;100.00;101302.94;5243898;28;20048;-65
2022/11/14 01:24:01;;;;;;;15.65;12.60;;;;;;;3.50;100.00;101293.56;5245046;28;20060;-66
2022/11/14 01:26:32;;;;;;;19.38;13.50;;;;;;;3.51;100.00;101299.72;5246708;28;20040;-65
2022/11/14 01:29:04;;;;;;;19.88;12.30;;;;;;;3.46;100.00;101289.31;5246215;28;20520;-66
2022/11/14 01:31:35;;;;;;;15.55;12.13;;;;;;;3.61;100.00;101287.84;5244382;28;20357;-66
2022/11/14 01:34:06;;;;;;;16.27;12.27;;;;;;;3.39;100.00;101292.25;5244617;28;20063;-65
2022/11/14 01:36:38;;;;;;;16.38;11.55;;;;;;;3.35;100.00;101286.25;5246886;28;21400;-66
2022/11/14 01:39:09;;;;;;;13.93;11.35;;;;;;;3.31;100.00;101289.94;5245402;28;20119;-66
2022/11/14 01:41:40;;;;;;;16.55;12.00;;;;;;;3.27;100.00;101281.28;5240238;28;20104;-65
2022/11/14 01:44:15;;;;;;;13.27;10.68;;;;;;;3.31;100.00;101274.94;5242755;28;20033;-65
2022/11/14 01:46:53;;;;;;;14.73;11.05;;;;;;;3.23;100.00;101284.09;5240643;28;20070;-65
2022/11/14 01:49:37;;;;;;;14.98;11.07;;;;;;;3.26;100.00;101279.56;5246782;28;20025;-65
2022/11/14 01:52:18;;;;;;;;;;;;;;;3.30;100.00;101281.16;5241834;28;20035;-66
2022/11/14 01:54:53;;;;;;;15.10;10.88;;;;;;;3.16;100.00;101282.63;5245797;28;20289;-65
2022/11/14 01:57:29;;;;;;;16.85;10.65;;;;;;;3.24;100.00;101285.81;5239952;28;20482;-65
2022/11/14 02:00:06;;;;;;;14.13;10.77;;;;;;;3.13;100.00;101278.31;5241632;28;20592;-65
2022/11/14 02:02:37;;;;;;;13.77;11.18;;;;;;;3.07;100.00;101271.50;5245018;28;20029;-65
2022/11/14 02:05:11;;;;;;;15.90;10.43;;;;;;;3.09;100.00;101268.81;5242944;28;20043;-65
2022/11/14 02:07:43;;;;;;;14.98;10.57;;;;;;;3.05;100.00;101272.47;5247289;28;20032;-65
2022/11/14 02:10:18;;;;;;;13.52;10.43;;;;;;;3.06;100.00;101266.28;5245825;28;20040;-65
2022/11/14 02:12:51;;;;;;;16.08;11.30;;;;;;;2.95;100.00;101258.78;5243949;28;20025;-65
2022/11/14 02:15:23;;;;;;;16.20;11.25;;;;;;;3.06;100.00;101261.03;5245205;28;20449;-65
2022/11/14 02:17:55;;;;;;;14.18;10.43;;;;;;;3.00;100.00;101253.34;5243751;28;20052;-65
2022/11/14 02:20:30;;;;;;;14.48;9.73;;;;;;;3.05;100.00;101254.00;5243707;28;20131;-65
2022/11/14 02:23:02;;;;;;;16.52;10.98;;;;;;;3.02;100.00;101247.09;5244195;28;20035;-65
2022/11/14 02:25:33;;;;;;;15.48;10.98;;;;;;;2.91;100.00;101251.91;5247178;28;20025;-65
2022/11/14 02:28:09;;;;;;;15.07;10.23;;;;;;;2.96;100.00;101251.75;5243437;28;20044;-65
2022/11/14 02:30:40;;;;;;;13.90;10.52;;;;;;;2.99;100.00;101241.94;5245445;28;20075;-65
2022/11/14 02:33:12;;;;;;;14.27;10.63;;;;;;;2.97;100.00;101240.28;5242929;28;20029;-65
2022/11/14 02:35:43;;;;;;;14.75;10.30;;;;;;;2.89;100.00;101251.13;5243180;28;20060;-66
2022/11/14 02:38:14;;;;;;;13.40;10.13;;;;;;;2.93;100.00;101243.06;5243433;28;20119;-66
2022/11/14 02:40:45;;;;;;;14.50;10.68;;;;;;;2.81;100.00;101242.66;5244263;28;20031;-66
2022/11/14 02:43:17;;;;;;;14.63;10.25;;;;;;;2.85;100.00;101249.50;5244335;28;20029;-66
2022/11/14 02:45:48;;;;;;;14.10;10.10;;;;;;;2.80;100.00;101249.69;5243336;28;20532;-66
2022/11/14 02:48:19;;;;;;;15.13;10.07;;;;;;;2.74;100.00;101239.38;5245553;28;20499;-65
2022/11/14 02:50:51;;;;;;;13.48;10.63;;;;;;;2.81;100.00;101234.75;5243114;28;20474;-66
2022/11/14 02:53:22;;;;;;;14.75;9.93;;;;;;;2.73;100.00;101227.13;5244746;28;20281;-66
2022/11/14 02:55:53;;;;;;;12.35;9.65;;;;;;;2.73;100.00;101229.75;5228073;28;20049;-66
2022/11/14 02:58:25;;;;;;;14.18;10.27;;;;;;;2.73;100.00;101225.34;5245314;28;20121;-65
2022/11/14 03:00:56;;;;;;;15.57;10.25;;;;;;;2.74;100.00;101221.81;5246908;28;20036;-66
2022/11/14 03:03:27;;;;;;;13.98;10.23;;;;;;;2.68;100.00;101222.00;5248113;28;20017;-66
2022/11/14 03:06:00;;;;;;;14.82;10.98;;;;;;;2.65;100.00;101221.28;5248364;28;20021;-66
2022/11/14 03:08:31;;;;;;;14.48;10.15;;;;;;;2.68;100.00;101219.38;5247650;28;20087;-66
2022/11/14 03:11:07;;;;;;;13.88;9.60;;;;;;;2.66;100.00;101217.72;5248782;28;20036;-66
2022/11/14 03:13:38;;;;;;;12.95;9.43;;;;;;;2.59;100.00;101221.50;5252773;28;20056;-66
2022/11/14 03:16:12;;;;;;;16.67;9.50;;;;;;;2.58;100.00;101214.53;5248343;28;20036;-65
2022/11/14 03:18:43;;;;;;;16.03;10.43;;;;;;;2.52;100.00;101212.97;5248012;28;20029;-66
2022/11/14 03:21:19;;;;;;;17.50;10.10;;;;;;;2.47;100.00;101213.13;5251438;28;20295;-66
2022/11/14 03:23:51;;;;;;;14.90;9.77;;;;;;;2.42;100.00;101209.84;5244807;28;20075;-66
2022/11/14 03:26:22;;;;;;;14.07;10.38;;;;;;;2.45;100.00;101214.97;5249662;28;20376;-66
2022/11/14 03:28:54;;;;;;;13.30;9.30;;;;;;;2.41;100.00;101213.38;5249484;28;20033;-66
2022/11/14 03:31:25;;;;;;;12.73;9.57;;;;;;;2.46;100.00;101215.84;5246291;28;20025;-66
2022/11/14 03:33:56;;;;;;;14.63;9.65;;;;;;;2.37;100.00;101210.91;5247026;28;20068;-66
2022/11/14 03:36:28;;;;;;;14.57;10.52;;;;;;;2.42;100.00;101207.19;5248570;28;20136;-66
2022/11/14 03:38:59;;;;;;;12.73;9.85;;;;;;;2.45;100.00;101199.16;5248130;28;20025;-66
2022/11/14 03:41:30;;;;;;;14.85;10.18;;;;;;;2.43;100.00;101205.41;5245270;28;20040;-66
2022/11/14 03:44:02;;;;;;;14.55;10.48;;;;;;;2.38;100.00;101202.97;5247500;28;20032;-66
2022/11/14 03:46:33;;;;;;;12.95;10.27;;;;;;;2.36;100.00;101199.53;5245772;28;20029;-66
2022/11/14 03:49:04;;;;;;;16.38;9.88;;;;;;;2.38;100.00;101207.34;5246067;28;20122;-66
2022/11/14 03:51:36;;;;;;;14.05;10.35;;;;;;;2.40;100.00;101202.88;5247221;28;20043;-65
2022/11/14 03:54:07;;;;;;;15.57;10.43;;;;;;;2.38;100.00;101207.34;5247988;28;20039;-66
2022/11/14 03:56:38;;;;;;;13.75;9.85;;;;;;;2.38;100.00;101195.06;5248078;28;20067;-65
2022/11/14 03:59:09;;;;;;;15.52;10.13;;;;;;;2.29;100.00;101188.34;5245980;28;20032;-65
2022/11/14 04:01:41;;;;;;;14.88;9.77;;;;;;;2.30;100.00;101189.19;5245524;28;20043;-65
2022/11/14 04:04:13;;;;;;;13.43;9.57;;;;;;;2.23;100.00;101193.84;5245456;28;20059;-66
2022/11/14 04:06:44;;;;;;;13.95;9.32;;;;;;;2.27;100.00;101179.66;5246287;28;20113;-65
2022/11/14 04:09:16;;;;;;;15.43;10.20;;;;;;;2.20;100.00;101179.94;5245070;28;20086;-66
2022/11/14 04:11:47;;;;;;;16.38;10.10;;;;;;;2.17;100.00;101178.28;5245459;28;20041;-66
2022/11/14 04:14:18;;;;;;;14.00;9.45;;;;;;;2.18;100.00;101172.06;5248291;28;20033;-65
2022/11/14 04:16:50;;;;;;;14.07;9.35;;;;;;;2.13;100.00;101174.91;5252680;28;20132;-65
2022/11/14 04:19:21;;;;;;;14.27;8.88;;;;;;;2.13;100.00;101177.53;5242831;28;20036;-65
2022/11/14 04:21:52;;;;;;;13.40;9.30;;;;;;;2.15;100.00;101174.84;5246042;28;20051;-67
2022/11/14 04:24:23;;;;;;;13.00;8.95;;;;;;;1.99;100.00;101169.25;5248848;28;20193;-65
2022/11/14 04:26:55;;;;;;;13.32;9.13;;;;;;;2.05;100.00;101158.53;5247511;28;20441;-66
2022/11/14 04:29:26;;;;;;;12.10;9.10;;;;;;;2.04;100.00;101162.06;5247083;28;20403;-66
2022/11/14 04:31:57;;;;;;;14.05;9.48;;;;;;;2.03;100.00;101155.06;5244412;28;20044;-66
2022/11/14 04:34:29;;;;;;;13.90;9.93;;;;;;;1.95;100.00;101149.22;5243231;28;20511;-65
2022/11/14 04:37:00;;;;;;;14.68;9.02;;;;;;;1.93;100.00;101162.44;5247078;28;20044;-65
2022/11/14 04:39:31;;;;;;;13.70;9.52;;;;;;;1.91;100.00;101161.63;5244925;28;20112;-65
2022/11/14 04:42:03;;;;;;;13.80;9.60;;;;;;;1.94;100.00;101156.28;5247875;28;20475;-65
2022/11/14 04:44:34;;;;;;;14.65;9.88;;;;;;;1.91;100.00;101150.25;5238712;28;20087;-66
2022/11/14 04:47:06;;;;;;;13.85;9.60;;;;;;;1.88;100.00;101156.50;5243147;28;20032;-66
2022/11/14 04:49:37;;;;;;;12.77;9.60;;;;;;;1.95;100.00;101149.22;5244958;28;20046;-65
2022/11/14 04:52:08;;;;;;;13.80;9.63;;;;;;;1.88;100.00;101148.59;5241343;28;20029;-65
2022/11/14 04:54:39;;;;;;;14.05;10.05;;;;;;;1.84;100.00;101148.75;5242432;28;20483;-65
2022/11/14 04:57:11;;;;;;;14.27;9.27;;;;;;;1.79;100.00;101154.19;5246630;28;20108;-66
2022/11/14 04:59:43;;;;;;;13.45;9.55;;;;;;;1.77;100.00;101148.13;5243621;28;20037;-65
2022/11/14 05:02:14;;;;;;;13.90;9.93;;;;;;;1.76;100.00;101139.38;5245756;28;20112;-66
2022/11/14 05:04:47;;;;;;;15.35;10.05;;;;;;;1.81;100.00;101146.25;5244675;28;20041;-65
2022/11/14 05:07:18;;;;;;;16.13;10.27;;;;;;;1.77;100.00;101143.69;5244241;28;20017;-65
2022/11/14 05:09:49;;;;;;;13.57;10.20;;;;;;;1.72;100.00;101150.88;5245675;28;20091;-65
2022/11/14 05:12:20;;;;;;;13.48;10.50;;;;;;;1.76;100.00;101142.00;5247876;28;20036;-66
2022/11/14 05:14:52;;;;;;;14.77;10.40;;;;;;;1.72;100.00;101137.72;5244687;28;20025;-65
2022/11/14 05:17:23;;;;;;;14.45;10.20;;;;;;;1.72;100.00;101136.88;5244816;28;20027;-65
2022/11/14 05:19:54;;;;;;;15.80;10.38;;;;;;;1.63;100.00;101132.81;5244670;28;20437;-65
2022/11/14 05:22:26;;;;;;;16.45;10.70;;;;;;;1.60;100.00;101124.16;5245602;28;20028;-66
2022/11/14 05:24:57;;;;;;;14.75;10.68;;;;;;;1.58;100.00;101126.00;5243023;28;20102;-66
2022/11/14 05:27:28;;;;;;;16.08;10.88;;;;;;;1.52;100.00;101117.41;5246073;28;20668;-65
2022/11/14 05:29:59;;;;;;;17.25;10.70;;;;;;;1.55;100.00;101116.44;5241724;28;20510;-65
2022/11/14 05:32:31;;;;;;;15.18;10.05;;;;;;;1.58;100.00;101121.59;5243582;28;20486;-65
2022/11/14 05:35:03;;;;;;;15.05;9.38;;;;;;;1.54;100.00;101114.72;5244926;28;20029;-65
2022/11/14 05:37:34;;;;;;;15.27;10.45;;;;;;;1.51;100.00;101112.19;5245500;28;20036;-65
2022/11/14 05:40:06;;;;;;;14.10;10.18;;;;;;;1.52;100.00;101112.16;5244318;28;20045;-65
2022/11/14 05:42:37;;;;;;;14.63;10.15;;;;;;;1.52;100.00;101112.16;5247670;28;20041;-66
2022/11/14 05:45:09;;;;;;;15.43;10.65;;;;;;;1.49;100.00;101114.00;5244331;28;20056;-65
2022/11/14 05:47:40;;;;;;;15.45;10.93;;;;;;;1.54;100.00;101104.22;5245815;28;20499;-65
2022/11/14 05:50:12;;;;;;;16.05;10.50;;;;;;;1.49;100.00;101111.38;5244012;28;20036;-65
2022/11/14 05:52:43;;;;;;;13.80;10.38;;;;;;;1.51;100.00;101112.19;5243773;28;20086;-64
2022/11/14 05:55:14;;;;;;;14.90;11.27;;;;;;;1.47;100.00;101107.94;5245409;28;20103;-64
2022/11/14 05:57:46;;;;;;;13.63;10.02;;;;;;;1.45;100.00;101109.78;5239560;28;20056;-64
2022/11/14 06:00:18;;;;;;;13.82;9.65;;;;;;;1.45;100.00;101109.78;5242401;28;20041;-63
2022/11/14 06:02:53;;;;;;;15.20;10.57;;;;;;;1.41;100.00;101105.53;5244352;28;20037;-63
2022/11/14 06:05:24;;;;;;;16.83;11.20;;;;;;;1.39;100.00;101110.00;5239299;28;20103;-63
2022/11/14 06:07:58;;;;;;;17.75;12.02;;;;;;;1.39;100.00;101108.22;5246390;28;20111;-65
2022/11/14 06:10:29;;;;;;;14.35;10.80;;;;;;;1.33;100.00;101101.41;5242643;28;20028;-64
2022/11/14 06:13:01;;;;;;;15.02;10.07;;;;;;;1.36;100.00;101106.56;5242785;28;20029;-63
2022/11/14 06:15:32;;;;;;;13.55;10.48;;;;;;;1.43;100.00;101107.19;5243278;28;20035;-65
2022/11/14 06:18:03;;;;;;;16.48;10.77;;;;;;;1.35;100.00;101115.34;5244276;28;20064;-64
2022/11/14 06:20:35;;;;;;;15.52;9.88;;;;;;;1.39;100.00;101108.22;5236173;28;20036;-64
2022/11/14 06:23:06;;;;;;;15.82;10.88;;;;;;;1.31;100.00;101108.47;5241959;28;20071;-64
2022/11/14 06:25:38;;;;;;;15.15;10.52;;;;;;;1.35;100.00;101115.34;5241064;28;20037;-64
2022/11/14 06:28:09;;;;;;;15.95;10.50;;;;;;;1.35;100.00;101112.72;5241784;28;20033;-65
2022/11/14 06:30:40;;;;;;;14.70;9.95;;;;;;;1.37;100.00;101107.41;5236198;28;20037;-65
2022/11/14 06:33:11;;;;;;;17.27;10.52;;;;;;;1.26;100.00;101102.50;5241881;28;20040;-64
2022/11/14 06:35:43;;;;;;;15.95;10.52;;;;;;;1.31;100.00;101102.38;5242865;28;20478;-64
2022/11/14 06:38:14;;;;;;;15.65;11.25;;;;;;;1.29;100.00;101098.94;5231019;28;20514;-64
2022/11/14 06:40:45;;;;;;;17.42;10.88;;;;;;;1.33;100.00;101103.16;5242858;28;20388;-64
2022/11/14 06:43:17;;;;;;;13.52;9.85;;;;;;;1.37;100.00;101104.78;5255335;28;20040;-64
2022/11/14 06:45:48;;;;;;;15.13;11.00;;;;;;;1.27;100.00;101111.28;5253454;28;20064;-64
2022/11/14 06:48:19;;;;;;;14.95;10.52;;;;;;;1.29;100.00;101110.31;5255684;28;20423;-64
2022/11/14 06:50:52;;;;;;;14.48;10.38;;;;;;;1.31;100.00;101112.88;5256146;28;20073;-64
2022/11/14 06:53:24;;;;;;;16.00;10.70;;;;;;;1.34;100.00;101118.00;5254996;28;20531;-64
2022/11/14 06:55:57;;;;;;;13.45;9.27;;;;;;;1.26;100.00;101123.53;5258298;28;20604;-64
2022/11/14 06:58:34;;;;;;;17.15;10.82;;;;;;;1.28;100.00;101123.50;5255221;28;20033;-64
2022/11/14 07:01:10;;;;;;;15.20;10.02;;;;;;;1.28;100.00;101121.72;5246921;28;20051;-64
2022/11/14 07:03:42;;;;;;;15.38;10.20;;;;;;;1.25;100.00;101121.84;5253438;28;20104;-64
2022/11/14 07:06:20;;;;;;;14.85;10.10;;;;;;;1.18;100.00;101123.78;5252392;28;20060;-64
2022/11/14 07:08:53;;;;;;;15.50;10.43;;;;;;;1.22;100.00;101127.19;5253634;28;20021;-64
2022/11/14 07:11:28;;;;;;;15.82;10.95;;;;;;;1.16;100.00;101136.13;5251615;28;20094;-64
2022/11/14 07:14:01;;;;;;;15.25;11.13;;;;;;;1.20;100.00;101136.88;5258273;28;20562;-64
2022/11/14 07:16:34;;;;;;;17.30;11.18;;;;;;;1.22;100.00;101135.06;5251943;28;20052;-64
2022/11/14 07:19:08;;;;;;;19.90;12.18;;;;;;;1.29;100.00;101131.31;5250849;28;20498;-64
2022/11/14 07:21:40;;;;;;;16.58;11.15;;;;;;;1.22;100.00;101137.69;5252677;28;20062;-64
2022/11/14 07:24:11;;;;;;;17.48;11.25;;;;;;;1.30;100.00;101129.56;5254925;28;20024;-64
2022/11/14 07:26:44;;;;;;;20.00;10.70;;;;;;;1.27;100.00;101138.41;5253551;28;20432;-64
2022/11/14 07:29:15;;;;;;;20.90;11.50;;;;;;;1.28;100.00;101128.75;5257451;28;20032;-64
2022/11/14 07:31:46;;;;;;;14.95;10.55;;;;;;;1.31;100.00;101123.41;5251392;28;20024;-64
2022/11/14 07:34:18;;;;;;;15.85;10.10;;;;;;;1.26;100.00;101128.78;5245850;28;20028;-65
2022/11/14 07:36:49;;;;;;;16.02;10.70;;;;;;;1.30;100.00;101122.50;5250741;28;20090;-64
2022/11/14 07:39:20;;;;;;;17.13;11.07;;;;;;;1.30;100.00;101112.00;5247610;28;20490;-64
2022/11/14 07:41:52;;;;;;;16.65;11.27;;;;;;;1.41;100.00;101108.16;5246332;28;20098;-64
2022/11/14 07:44:23;;;;;;;14.70;11.05;;;;;;;1.48;100.00;101104.44;5247328;28;20360;-64
2022/11/14 07:46:54;;;;;;;17.05;11.55;;;;;;;1.42;100.00;101108.13;5235368;28;20379;-64
2022/11/14 07:49:25;;;;;;;17.27;12.20;;;;;;;1.46;100.00;101107.09;5246593;28;20633;-64
2022/11/14 07:51:57;;;;;;;17.98;12.23;;;;;;;1.55;100.00;101100.66;5246779;28;20497;-64
2022/11/14 07:54:28;;;;;;;18.55;11.68;;;;;;;1.50;100.00;101106.06;5248973;28;20056;-65
2022/11/14 07:56:59;;;;;;;17.52;11.60;;;;;;;1.58;100.00;101102.34;5252192;28;20052;-64
2022/11/14 07:59:30;;;;;;;19.80;12.10;;;;;;;1.62;100.00;101101.31;5253591;28;20025;-64
2022/11/14 08:02:02;;;;;;;17.00;11.20;;;;;;;1.57;100.00;101098.81;5247221;28;20108;-64
2022/11/14 08:04:33;;;;;;;17.50;11.93;;;;;;;1.61;100.00;101089.94;5245962;28;20040;-64
2022/11/14 08:07:04;;;;;;;17.70;11.02;;;;;;;1.71;100.00;101096.56;5250993;28;20035;-64
2022/11/14 08:09:35;;;;;;;17.10;11.65;;;;;;;1.77;100.00;101096.34;5250274;28;21159;-64
2022/11/14 08:12:07;;;;;;;17.85;12.30;;;;;;;1.79;100.00;101096.31;5248059;28;20355;-64
2022/11/14 08:14:38;;;;;;;17.33;12.13;;;;;;;1.82;100.00;101080.38;5252605;28;20056;-65
2022/11/14 08:17:09;;;;;;;18.15;12.57;;;;;;;1.80;100.00;101078.75;5250225;28;20115;-65
2022/11/14 08:19:40;;;;;;;18.98;13.35;;;;;;;1.90;100.00;101073.09;5250720;28;20040;-64
2022/11/14 08:22:12;;;;;;;18.05;12.25;;;;;;;1.83;100.00;101073.38;5250663;28;20024;-64
2022/11/14 08:24:43;;;;;;;16.98;12.48;;;;;;;1.98;100.00;101067.56;5250424;28;20037;-64
2022/11/14 08:27:14;;;;;;;16.85;13.05;;;;;;;1.90;100.00;101072.25;5249686;28;20068;-64
2022/11/14 08:29:45;;;;;;;19.98;12.80;;;;;;;1.92;100.00;101075.69;5251015;28;20110;-64
2022/11/14 08:32:17;;;;;;;19.27;12.57;;;;;;;2.13;100.00;101072.25;5246599;28;20049;-64
2022/11/14 08:34:49;;;;;;;18.05;12.82;;;;;;;2.08;100.00;101071.53;5252865;28;20075;-64
2022/11/14 08:37:20;;;;;;;19.60;12.63;;;;;;;2.13;100.00;101072.25;5251736;28;20036;-64
2022/11/14 08:39:51;;;;;;;17.52;13.48;;;;;;;2.21;100.00;101066.69;5251275;28;20047;-64
2022/11/14 08:42:22;;;;;;;17.20;12.88;;;;;;;2.19;100.00;101060.63;5247980;28;20227;-64
2022/11/14 08:44:54;;;;;;;19.73;13.43;;;;;;;2.21;100.00;101057.94;5251636;28;20032;-64
2022/11/14 08:47:25;;;;;;;18.30;13.27;;;;;;;2.23;100.00;101056.09;5248688;28;20097;-64
2022/11/14 08:49:57;;;;;;;18.85;14.02;;;;;;;2.34;100.00;101060.03;5246501;28;20130;-64
2022/11/14 08:52:28;;;;;;;21.70;13.77;;;;;;;2.50;100.00;101064.69;5248437;28;20032;-64
2022/11/14 08:54:59;;;;;;;20.60;13.40;;;;;;;2.39;100.00;101065.09;5248945;28;20044;-65
2022/11/14 08:57:30;;;;;;;18.40;14.45;;;;;;;2.46;100.00;101060.47;5244439;28;20100;-64
2022/11/14 09:00:02;;;;;;;19.45;14.20;;;;;;;2.49;100.00;101071.75;5250071;28;20033;-64
2022/11/14 09:02:34;;;;;;;21.63;14.50;;;;;;;2.59;100.00;101063.47;5250317;28;20031;-64
2022/11/14 09:05:05;;;;;;;19.40;14.85;;;;;;;2.69;100.00;101068.31;5245335;28;20505;-64
2022/11/14 09:07:37;;;;;;;21.23;15.63;;;;;;;2.82;100.00;101059.91;5244205;28;20033;-64
2022/11/14 09:10:08;;;;;;;19.38;14.60;;;;;;;2.85;100.00;101050.09;5248959;28;21347;-64
2022/11/14 09:12:39;;;;;;;19.75;15.05;;;;;;;3.04;100.00;101049.34;5249506;28;20363;-63
2022/11/14 09:15:10;;;;;;;25.65;16.10;;;;;;;3.03;100.00;101047.59;5247130;28;20124;-63
2022/11/14 09:17:42;;;;;;;20.35;15.48;;;;;;;3.04;100.00;101054.63;5250135;28;20080;-63
2022/11/14 09:20:13;;;;;;;21.45;15.25;;;;;;;3.14;100.00;101046.28;5246683;28;20593;-63
2022/11/14 09:22:45;;;;;;;22.10;15.20;;;;;;;3.24;100.00;101040.56;5246716;28;20020;-63
2022/11/14 09:25:16;;;;;;;21.00;15.70;;;;;;;3.26;100.00;101022.91;5248964;28;20052;-63
2022/11/14 09:27:48;;;;;;;24.38;16.60;;;;;;;3.34;100.00;101032.22;5239155;28;20025;-64
2022/11/14 09:30:20;;;;;;;23.40;16.20;;;;;;;3.37;100.00;101033.84;5243489;28;20111;-63
2022/11/14 09:32:51;;;;;;;22.90;16.17;;;;;;;3.43;100.00;101033.59;5246612;28;20056;-63
2022/11/14 09:35:23;;;;;;;22.38;16.50;;;;;;;3.54;100.00;101027.84;5248551;28;20119;-63
2022/11/14 09:38:06;;;;;;;24.60;16.63;;;;;;;3.66;100.00;101026.44;5249152;28;20021;-63
2022/11/14 09:40:56;;;;;;;23.05;16.40;;;;;;;3.72;100.00;101024.41;5246272;28;20028;-64
2022/11/14 09:43:30;;;;;;;27.60;17.58;;;;;;;3.85;100.00;101023.81;5248401;28;20024;-63
2022/11/14 09:46:02;;;;;;;21.73;17.17;;;;;;;3.88;100.00;101008.72;5249761;28;20063;-64
2022/11/14 09:48:33;;;;;;;22.33;16.98;;;;;;;3.92;100.00;101009.41;5247443;28;22038;-63
2022/11/14 09:51:08;;;;;;;24.40;18.42;;;;;;;3.98;100.00;101011.78;5247789;28;20143;-63
2022/11/14 09:53:50;;;;;;;24.38;17.65;;;;;;;4.08;100.00;101020.13;5251704;28;20037;-63
2022/11/14 09:56:25;;;;;;;21.88;17.20;;;;;;;4.18;100.00;101021.44;5249822;28;20044;-63
2022/11/14 09:58:57;;;;;;;23.48;17.35;;;;;;;4.29;100.00;101026.19;5249678;28;20062;-64
2022/11/14 10:01:58;;;;;;;25.10;16.70;;;;;;;4.36;100.00;101024.97;5242363;28;20981;-63
2022/11/14 10:04:58;;;;;;;21.13;16.27;;;;;;;4.44;100.00;101024.59;5250404;28;20031;-63
2022/11/14 10:07:46;;;;;;;23.95;17.17;;;;;;;4.51;100.00;101021.59;5250080;28;20035;-63
2022/11/14 10:10:38;;;;;;;22.02;16.85;;;;;;;4.59;100.00;101025.66;5251265;28;20037;-63
2022/11/14 10:13:35;;;;;;;21.98;16.15;;;;;;;4.65;100.00;101015.63;5253648;28;20048;-64
2022/11/14 10:16:23;;;;;;;21.77;16.38;;;;;;;4.73;100.00;101020.53;5254999;28;20398;-63
2022/11/14 10:19:03;;;;;;;24.02;16.65;;;;;;;4.82;100.00;101027.16;5257373;28;20399;-64
2022/11/14 10:21:56;;;;;;;21.92;16.88;;;;;;;4.93;100.00;101016.03;5255757;28;20036;-64
2022/11/14 10:24:30;;;;;;;23.15;15.75;;;;;;;5.03;100.00;101012.00;5248939;28;20123;-66
2022/11/14 10:27:04;;;;;;;22.85;16.55;;;;;;;4.90;100.00;101015.25;5258004;28;20056;-64
2022/11/14 10:29:52;;;;;;;23.38;16.27;;;;;;;5.01;100.00;101013.88;5246676;28;20128;-64
2022/11/14 10:32:49;;;;;;;21.63;16.05;;;;;;;5.08;100.00;101002.91;5236951;28;20075;-64
2022/11/14 10:35:26;;;;;;;25.33;16.85;;;;;;;5.18;100.00;101003.28;5248566;28;20363;-64
2022/11/14 10:38:13;;;;;;;20.52;15.85;;;;;;;5.19;100.00;101002.34;5252887;28;20032;-64
2022/11/14 10:40:51;;;;;;;21.58;17.17;;;;;;;5.22;100.00;101004.84;5251969;28;20053;-64
2022/11/14 10:43:28;;;;;;;23.70;17.40;;;;;;;5.29;100.00;101000.97;5257343;28;20017;-64
2022/11/14 10:46:09;;;;;;;20.65;16.48;;;;;;;5.39;100.00;101005.75;5251666;28;20033;-64
2022/11/14 10:48:45;;;;;;;22.88;17.42;;;;;;;5.44;100.00;101006.38;5257219;28;20037;-63
2022/11/14 10:51:25;;;;;;;22.48;16.63;;;;;;;5.51;100.00;100994.53;5254250;28;20040;-64
2022/11/14 10:54:09;;;;;;;21.30;16.38;;;;;;;5.60;100.00;100996.69;5252157;28;20025;-64
2022/11/14 10:56:52;;;;;;;24.90;16.75;;;;;;;5.63;100.00;100996.50;5253893;28;20044;-64
2022/11/14 10:59:23;;;;;;;20.65;16.38;;;;;;;5.73;100.00;100990.72;5251624;28;20396;-63
2022/11/14 11:01:57;;;;;;;21.23;15.98;;;;;;;5.75;100.00;100989.69;5250799;28;20044;-64
2022/11/14 11:04:37;;;;;;;24.05;16.90;;;;;;;5.87;100.00;100985.56;5255933;28;20386;-64
2022/11/14 11:07:08;;;;;;;21.40;16.77;;;;;;;5.88;100.00;100979.31;5249161;28;20041;-64
2022/11/14 11:12:42;;;;;;;21.30;16.65;;;;;;;6.11;100.00;100979.88;5252817;28;20041;-64
2022/11/14 11:15:19;;;;;;;24.47;17.93;;;;;;;6.04;100.00;100974.03;5251364;28;20502;-64
2022/11/14 11:17:55;;;;;;;23.02;17.45;;;;;;;6.08;100.00;100965.00;5253918;28;20056;-64
2022/11/14 11:20:33;;;;;;;24.63;17.95;;;;;;;6.11;100.00;100954.22;5250057;28;20568;-64
2022/11/14 11:23:10;;;;;;;23.48;17.38;;;;;;;6.15;100.00;100953.09;5251050;28;20033;-63
2022/11/14 11:25:42;;;;;;;24.15;17.75;;;;;;;6.26;100.00;100945.41;5253845;28;20033;-63
2022/11/14 11:28:14;;;;;;;22.77;17.90;;;;;;;6.27;100.00;100951.56;5254627;28;20387;-63
2022/11/14 11:31:06;;;;;;;23.10;17.73;;;;;;;6.31;100.00;100953.13;5249510;28;20082;-63
2022/11/14 11:33:38;;;;;;;21.42;17.23;;;;;;;6.32;100.00;100938.91;5250699;28;20029;-64
2022/11/14 11:36:17;;;;;;;23.95;18.25;;;;;;;6.36;100.00;100934.28;5249996;28;20040;-64
2022/11/14 11:38:49;;;;;;;22.90;17.45;;;;;;;6.43;100.00;100936.50;5248298;28;20067;-63
2022/11/14 11:41:29;;;;;;;23.73;17.08;;;;;;;6.44;100.00;100934.69;5252948;28;20037;-64